createdAt,value
2022-12-26T00:01:21.788Z,101876.53
2022-12-26T00:03:53.576Z,101878.91
2022-12-26T00:06:26.323Z,101871.38
2022-12-26T00:08:53.983Z,101876.13
2022-12-26T00:11:25.599Z,101865.97
2022-12-26T00:14:01.167Z,101867.34
2022-12-26T00:16:28.962Z,101856.56
2022-12-26T00:18:56.528Z,101860.41
2022-12-26T00:21:27.157Z,101844.66
2022-12-26T00:23:55.795Z,101841.00
2022-12-26T00:26:24.370Z,101850.50
2022-12-26T00:28:53.461Z,101834.22
2022-12-26T00:31:22.708Z,101839.63
2022-12-26T00:33:51.414Z,101840.53
2022-12-26T00:36:21.352Z,101829.69
2022-12-26T00:38:50.526Z,101826.22
2022-12-26T00:41:19.839Z,101823.97
2022-12-26T00:43:47.407Z,101823.84
2022-12-26T00:46:15.834Z,101819.22
2022-12-26T00:48:44.186Z,101819.50
2022-12-26T00:51:12.456Z,101819.88
2022-12-26T00:53:40.167Z,101825.16
2022-12-26T00:56:08.610Z,101817.25
2022-12-26T00:58:49.695Z,101816.97
2022-12-26T01:01:19.905Z,101821.06
2022-12-26T01:03:47.932Z,101814.13
2022-12-26T01:06:15.350Z,101807.97
2022-12-26T01:08:43.108Z,101806.53
2022-12-26T01:11:12.217Z,101803.63
2022-12-26T01:13:41.182Z,101787.69
2022-12-26T01:16:10.063Z,101778.94
2022-12-26T01:18:38.361Z,101786.94
2022-12-26T01:21:08.596Z,101781.50
2022-12-26T01:23:36.777Z,101782.28
2022-12-26T01:26:16.980Z,101786.88
2022-12-26T01:28:51.605Z,101773.13
2022-12-26T01:31:21.093Z,101775.88
2022-12-26T01:33:50.192Z,101779.84
2022-12-26T01:36:19.265Z,101770.03
2022-12-26T01:38:47.244Z,101774.16
2022-12-26T01:41:17.705Z,101776.31
2022-12-26T01:43:54.271Z,101765.59
2022-12-26T01:46:28.174Z,101768.09
2022-12-26T01:48:57.166Z,101757.81
2022-12-26T01:51:26.656Z,101760.91
2022-12-26T01:54:39.811Z,101763.09
2022-12-26T01:56:46.249Z,101761.91
2022-12-26T01:59:17.911Z,101754.38
2022-12-26T02:01:47.137Z,101755.97
2022-12-26T02:04:39.351Z,101742.16
2022-12-26T02:07:07.762Z,101737.03
2022-12-26T02:09:35.155Z,101736.34
2022-12-26T02:12:36.185Z,101731.63
2022-12-26T02:14:52.574Z,101724.59
2022-12-26T02:17:20.601Z,101729.41
2022-12-26T02:19:59.344Z,101721.22
2022-12-26T02:22:42.039Z,101711.13
2022-12-26T02:25:39.165Z,101713.28
2022-12-26T02:28:25.248Z,101707.19
2022-12-26T02:30:58.434Z,101693.63
2022-12-26T02:33:35.678Z,101703.13
2022-12-26T02:36:06.083Z,101701.38
2022-12-26T02:38:36.498Z,101694.84
2022-12-26T02:41:18.314Z,101692.53
2022-12-26T02:44:23.575Z,101683.38
2022-12-26T02:47:05.431Z,101675.06
2022-12-26T02:50:10.525Z,101676.69
2022-12-26T02:53:09.229Z,101668.13
2022-12-26T02:55:58.418Z,101666.22
2022-12-26T02:58:49.909Z,101662.88
2022-12-26T03:01:45.871Z,101671.72
2022-12-26T03:04:35.600Z,101652.09
2022-12-26T03:07:24.918Z,101663.16
2022-12-26T03:10:12.580Z,101649.28
2022-12-26T03:13:03.907Z,101642.44
2022-12-26T03:15:54.982Z,101642.09
2022-12-26T03:18:59.526Z,101649.31
2022-12-26T03:21:15.303Z,101637.34
2022-12-26T03:23:45.596Z,101627.59
2022-12-26T03:26:35.897Z,101620.75
2022-12-26T03:29:22.972Z,101623.38
2022-12-26T03:31:50.956Z,101608.31
2022-12-26T03:34:19.145Z,101607.91
2022-12-26T03:36:56.525Z,101611.06
2022-12-26T03:39:51.910Z,101607.28
2022-12-26T03:42:38.440Z,101595.69
2022-12-26T03:45:35.240Z,101589.44
2022-12-26T03:48:22.468Z,101578.19
2022-12-26T03:51:15.011Z,101577.16
2022-12-26T03:54:12.266Z,101575.78
2022-12-26T03:57:04.390Z,101565.66
2022-12-26T03:59:55.908Z,101562.75
2022-12-26T04:02:43.752Z,101547.16
2022-12-26T04:05:33.269Z,101540.31
2022-12-26T04:08:21.876Z,101539.50
2022-12-26T04:11:12.911Z,101535.47
2022-12-26T04:14:03.472Z,101528.84
2022-12-26T04:16:59.787Z,101536.06
2022-12-26T04:19:29.074Z,101523.63
2022-12-26T04:22:51.229Z,101515.34
2022-12-26T04:25:51.456Z,101511.91
2022-12-26T04:28:38.798Z,101514.13
2022-12-26T04:31:32.580Z,101518.19
2022-12-26T04:34:21.096Z,101514.44
2022-12-26T04:37:16.067Z,101507.44
2022-12-26T04:40:05.057Z,101497.09
2022-12-26T04:42:52.887Z,101494.22
2022-12-26T04:45:22.849Z,101491.78
2022-12-26T04:48:09.908Z,101489.34
2022-12-26T04:50:49.379Z,101495.44
2022-12-26T04:53:17.393Z,101486.44
2022-12-26T04:55:45.084Z,101485.09
2022-12-26T04:58:12.514Z,101488.75
2022-12-26T05:00:40.898Z,101475.19
2022-12-26T05:03:29.549Z,101471.34
2022-12-26T05:06:16.700Z,101483.38
2022-12-26T05:09:03.640Z,101471.69
2022-12-26T05:11:34.747Z,101463.31
2022-12-26T05:14:02.843Z,101460.91
2022-12-26T05:16:49.380Z,101457.22
2022-12-26T05:19:36.535Z,101447.81
2022-12-26T05:22:23.595Z,101450.47
2022-12-26T05:25:10.872Z,101442.13
2022-12-26T05:27:59.030Z,101440.47
2022-12-26T05:30:27.178Z,101437.56
2022-12-26T05:33:15.986Z,101430.03
2022-12-26T05:35:43.806Z,101422.72
2022-12-26T05:38:12.197Z,101425.34
2022-12-26T05:40:39.755Z,101415.66
2022-12-26T05:43:06.976Z,101411.97
2022-12-26T05:45:34.274Z,101412.69
2022-12-26T05:48:02.088Z,101412.78
2022-12-26T05:50:29.723Z,101402.25
2022-12-26T05:52:58.224Z,101398.97
2022-12-26T05:55:25.945Z,101400.78
2022-12-26T05:57:53.248Z,101384.53
2022-12-26T06:00:20.889Z,101381.06
2022-12-26T06:02:49.165Z,101379.78
2022-12-26T06:05:16.809Z,101376.22
2022-12-26T06:07:44.604Z,101367.13
2022-12-26T06:10:12.493Z,101368.66
2022-12-26T06:12:40.110Z,101362.44
2022-12-26T06:15:07.645Z,101347.13
2022-12-26T06:17:35.031Z,101344.31
2022-12-26T06:20:02.434Z,101334.34
2022-12-26T06:22:30.350Z,101337.38
2022-12-26T06:24:58.030Z,101333.00
2022-12-26T06:27:25.298Z,101334.94
2022-12-26T06:29:52.609Z,101332.03
2022-12-26T06:32:19.954Z,101340.72
2022-12-26T06:34:47.668Z,101336.09
2022-12-26T06:37:14.902Z,101331.44
2022-12-26T06:39:42.267Z,101329.66
2022-12-26T06:42:09.850Z,101329.06
2022-12-26T06:44:37.397Z,101331.25
2022-12-26T06:47:05.275Z,101322.47
2022-12-26T06:49:33.700Z,101322.28
2022-12-26T06:52:01.560Z,101318.72
2022-12-26T06:54:32.647Z,101323.75
2022-12-26T06:57:00.679Z,101320.22
2022-12-26T06:59:31.494Z,101321.22
2022-12-26T07:02:00.720Z,101319.94
2022-12-26T07:04:28.369Z,101310.44
2022-12-26T07:06:56.083Z,101305.38
2022-12-26T07:09:25.932Z,101316.22
2022-12-26T07:11:57.371Z,101296.69
2022-12-26T07:14:24.593Z,101298.41
2022-12-26T07:16:51.893Z,101292.06
2022-12-26T07:19:19.342Z,101284.00
2022-12-26T07:21:47.180Z,101284.50
2022-12-26T07:24:16.128Z,101290.03
2022-12-26T07:26:43.867Z,101288.72
2022-12-26T07:29:12.184Z,101280.56
2022-12-26T07:31:39.789Z,101289.66
2022-12-26T07:34:07.539Z,101289.00
2022-12-26T07:36:34.857Z,101292.28
2022-12-26T07:39:02.119Z,101292.44
2022-12-26T07:41:48.138Z,101290.41
2022-12-26T07:44:15.572Z,101293.78
2022-12-26T07:46:42.935Z,101278.25
2022-12-26T07:49:12.770Z,101276.81
2022-12-26T07:51:40.958Z,101270.75
2022-12-26T07:54:11.378Z,101279.97
2022-12-26T07:56:39.599Z,101272.25
2022-12-26T07:59:07.218Z,101280.25
2022-12-26T08:01:34.738Z,101279.00
2022-12-26T08:04:02.147Z,101284.66
2022-12-26T08:06:29.571Z,101269.81
2022-12-26T08:08:58.664Z,101274.16
2022-12-26T08:11:26.142Z,101263.13
2022-12-26T08:13:53.501Z,101259.09
2022-12-26T08:16:21.397Z,101246.16
2022-12-26T08:18:48.908Z,101245.56
2022-12-26T08:21:16.184Z,101255.53
2022-12-26T08:23:43.571Z,101246.28
2022-12-26T08:26:12.257Z,101234.31
2022-12-26T08:28:43.890Z,101224.56
2022-12-26T08:31:12.686Z,101221.50
2022-12-26T08:33:39.995Z,101206.59
2022-12-26T08:36:09.011Z,101203.41
2022-12-26T08:38:36.719Z,101210.16
2022-12-26T08:41:04.175Z,101194.50
2022-12-26T08:44:02.981Z,101204.59
2022-12-26T08:46:20.152Z,101205.84
2022-12-26T08:48:48.076Z,101194.84
2022-12-26T08:51:22.831Z,101193.44
2022-12-26T08:53:51.071Z,101193.91
2022-12-26T08:56:19.799Z,101195.00
2022-12-26T08:58:47.747Z,101188.41
2022-12-26T09:01:16.872Z,101183.81
2022-12-26T09:03:44.714Z,101181.47
2022-12-26T09:06:13.267Z,101169.16
2022-12-26T09:08:41.242Z,101155.72
2022-12-26T09:11:09.854Z,101164.69
2022-12-26T09:13:37.252Z,101153.69
2022-12-26T09:16:07.775Z,101149.06
2022-12-26T09:18:35.392Z,101129.69
2022-12-26T09:21:03.436Z,101136.53
2022-12-26T09:23:30.720Z,101131.13
2022-12-26T09:26:09.641Z,101124.97
2022-12-26T09:28:36.960Z,101130.59
2022-12-26T09:31:05.469Z,101119.41
2022-12-26T09:33:33.538Z,101115.41
2022-12-26T09:36:04.609Z,101115.88
2022-12-26T09:38:34.845Z,101105.69
2022-12-26T09:41:08.003Z,101106.84
2022-12-26T09:43:58.309Z,101103.69
2022-12-26T09:46:39.881Z,101094.81
2022-12-26T09:49:13.358Z,101087.75
2022-12-26T09:51:42.640Z,101097.88
2022-12-26T09:54:15.536Z,101079.38
2022-12-26T09:59:34.412Z,101074.25
2022-12-26T10:02:01.804Z,101071.44
2022-12-26T10:04:30.548Z,101060.97
2022-12-26T10:07:09.694Z,101055.13
2022-12-26T10:09:48.098Z,101051.19
2022-12-26T10:12:26.372Z,101043.91
2022-12-26T10:15:06.163Z,101045.91
2022-12-26T10:17:33.465Z,101033.03
2022-12-26T10:20:19.086Z,101025.00
2022-12-26T10:22:58.823Z,101029.34
2022-12-26T10:25:35.753Z,101019.38
2022-12-26T10:28:04.546Z,101007.06
2022-12-26T10:30:37.730Z,100996.78
2022-12-26T10:33:09.703Z,100992.50
2022-12-26T10:35:42.200Z,100988.31
2022-12-26T10:38:15.252Z,100981.72
2022-12-26T10:40:45.100Z,100975.06
2022-12-26T10:43:18.714Z,100962.00
2022-12-26T10:45:51.049Z,100947.22
2022-12-26T10:48:18.593Z,100934.47
2022-12-26T10:50:48.171Z,100936.41
2022-12-26T10:53:16.701Z,100931.75
2022-12-26T10:55:44.059Z,100929.25
2022-12-26T10:58:31.633Z,100924.41
2022-12-26T11:01:19.095Z,100921.63
2022-12-26T11:03:57.123Z,100912.84
2022-12-26T11:06:26.448Z,100913.13
2022-12-26T11:08:53.809Z,100898.53
2022-12-26T11:11:22.969Z,100896.25
2022-12-26T11:14:02.204Z,100882.78
2022-12-26T11:16:31.635Z,100885.38
2022-12-26T11:18:59.498Z,100860.22
2022-12-26T11:21:28.311Z,100871.72
2022-12-26T11:24:07.639Z,100851.56
2022-12-26T11:26:34.938Z,100848.09
2022-12-26T11:29:05.509Z,100831.34
2022-12-26T11:31:33.166Z,100832.69
2022-12-26T11:34:25.877Z,100823.25
2022-12-26T11:36:53.298Z,100824.16
2022-12-26T11:39:20.528Z,100815.22
2022-12-26T11:41:49.327Z,100825.16
2022-12-26T11:44:16.614Z,100811.13
2022-12-26T11:46:52.697Z,100805.03
2022-12-26T11:49:26.569Z,100792.16
2022-12-26T11:51:59.207Z,100777.22
2022-12-26T11:54:37.144Z,100779.38
2022-12-26T11:57:11.361Z,100781.78
2022-12-26T11:59:39.410Z,100765.03
2022-12-26T12:02:12.898Z,100768.56
2022-12-26T12:04:40.351Z,100753.38
2022-12-26T12:07:22.893Z,100754.78
2022-12-26T12:09:59.392Z,100741.66
2022-12-26T12:12:36.599Z,100734.03
2022-12-26T12:15:34.523Z,100737.28
2022-12-26T12:18:20.448Z,100728.00
2022-12-26T12:20:51.895Z,100729.22
2022-12-26T12:23:32.000Z,100719.78
2022-12-26T12:26:02.250Z,100712.47
2022-12-26T12:28:48.529Z,100707.09
2022-12-26T12:31:24.432Z,100718.09
2022-12-26T12:33:59.775Z,100708.94
2022-12-26T12:36:55.978Z,100702.50
2022-12-26T12:39:44.631Z,100697.44
2022-12-26T12:42:24.317Z,100696.00
2022-12-26T12:44:57.735Z,100680.94
2022-12-26T12:47:37.227Z,100677.94
2022-12-26T12:50:17.501Z,100678.84
2022-12-26T12:52:45.921Z,100660.88
2022-12-26T12:55:28.544Z,100664.84
2022-12-26T12:58:23.420Z,100653.22
2022-12-26T13:00:54.357Z,100652.50
2022-12-26T13:04:00.190Z,100646.84
2022-12-26T13:06:40.703Z,100642.44
2022-12-26T13:09:19.148Z,100646.22
2022-12-26T13:11:51.152Z,100643.09
2022-12-26T13:14:21.099Z,100646.91
2022-12-26T13:16:56.931Z,100626.47
2022-12-26T13:19:26.469Z,100629.72
2022-12-26T13:21:56.007Z,100625.78
2022-12-26T13:24:34.059Z,100613.94
2022-12-26T13:27:21.896Z,100621.69
2022-12-26T13:29:49.374Z,100608.19
2022-12-26T13:32:19.903Z,100602.72
2022-12-26T13:34:48.038Z,100601.09
2022-12-26T13:37:33.808Z,100606.72
2022-12-26T13:40:03.835Z,100601.94
2022-12-26T13:42:54.818Z,100588.38
2022-12-26T13:45:40.562Z,100597.88
2022-12-26T13:48:17.197Z,100593.81
2022-12-26T13:50:55.130Z,100584.88
2022-12-26T13:53:26.313Z,100586.78
2022-12-26T13:55:56.299Z,100601.59
2022-12-26T13:58:32.697Z,100589.53
2022-12-26T14:01:05.904Z,100584.19
2022-12-26T14:04:02.574Z,100586.94
2022-12-26T14:06:40.832Z,100570.63
2022-12-26T14:09:10.972Z,100565.69
2022-12-26T14:11:46.951Z,100568.63
2022-12-26T14:14:26.638Z,100564.53
2022-12-26T14:16:59.697Z,100558.56
2022-12-26T14:19:33.363Z,100554.50
2022-12-26T14:22:13.217Z,100558.25
2022-12-26T14:24:54.480Z,100563.59
2022-12-26T14:27:21.759Z,100550.16
2022-12-26T14:29:56.843Z,100538.91
2022-12-26T14:32:36.266Z,100546.34
2022-12-26T14:35:22.460Z,100544.94
2022-12-26T14:37:52.833Z,100542.19
2022-12-26T14:40:29.223Z,100534.28
2022-12-26T14:43:11.747Z,100529.19
2022-12-26T14:45:41.880Z,100539.56
2022-12-26T14:48:15.289Z,100535.25
2022-12-26T14:50:45.790Z,100533.69
2022-12-26T14:53:27.361Z,100524.50
2022-12-26T14:55:56.277Z,100526.81
2022-12-26T14:58:23.687Z,100530.63
2022-12-26T15:00:51.267Z,100529.50
2022-12-26T15:03:36.034Z,100516.44
2022-12-26T15:06:18.469Z,100511.63
2022-12-26T15:09:00.521Z,100499.47
2022-12-26T15:11:35.006Z,100511.63
2022-12-26T15:14:21.457Z,100513.13
2022-12-26T15:17:07.272Z,100498.00
2022-12-26T15:19:43.833Z,100494.50
2022-12-26T15:22:17.157Z,100487.44
2022-12-26T15:25:19.929Z,100485.28
2022-12-26T15:27:53.875Z,100487.94
2022-12-26T15:30:22.933Z,100481.94
2022-12-26T15:33:14.776Z,100485.53
2022-12-26T15:36:03.120Z,100473.28
2022-12-26T15:38:31.160Z,100473.31
2022-12-26T15:40:58.425Z,100477.63
2022-12-26T15:43:29.326Z,100460.97
2022-12-26T15:46:15.415Z,100467.44
2022-12-26T15:48:51.935Z,100462.66
2022-12-26T15:51:30.605Z,100454.34
2022-12-26T15:54:13.128Z,100459.59
2022-12-26T15:56:58.420Z,100439.03
2022-12-26T15:59:47.767Z,100440.28
2022-12-26T16:02:31.716Z,100432.56
2022-12-26T16:05:08.805Z,100434.53
2022-12-26T16:07:42.449Z,100424.25
2022-12-26T16:10:28.081Z,100396.41
2022-12-26T16:12:59.020Z,100416.75
2022-12-26T16:15:26.435Z,100405.16
2022-12-26T16:17:53.696Z,100408.84
2022-12-26T16:20:42.871Z,100401.03
2022-12-26T16:23:16.504Z,100405.44
2022-12-26T16:25:50.770Z,100406.50
2022-12-26T16:28:23.282Z,100393.63
2022-12-26T16:30:51.071Z,100382.19
2022-12-26T16:33:18.603Z,100374.31
2022-12-26T16:35:46.086Z,100371.09
2022-12-26T16:38:15.890Z,100380.63
2022-12-26T16:40:44.998Z,100381.69
2022-12-26T16:43:19.432Z,100376.81
2022-12-26T16:45:50.247Z,100369.03
2022-12-26T16:48:23.742Z,100343.69
2022-12-26T16:51:07.270Z,100362.28
2022-12-26T16:53:35.615Z,100359.97
2022-12-26T16:56:22.493Z,100349.38
2022-12-26T16:59:17.687Z,100335.66
2022-12-26T17:01:51.606Z,100347.34
2022-12-26T17:04:21.516Z,100331.41
2022-12-26T17:06:56.195Z,100340.81
2022-12-26T17:09:26.162Z,100329.63
2022-12-26T17:11:57.390Z,100324.19
2022-12-26T17:14:35.074Z,100321.13
2022-12-26T17:17:08.596Z,100314.25
2022-12-26T17:19:37.609Z,100309.59
2022-12-26T17:22:14.677Z,100310.09
2022-12-26T17:24:44.193Z,100304.00
2022-12-26T17:27:19.901Z,100306.78
2022-12-26T17:29:50.556Z,100306.72
2022-12-26T17:32:27.848Z,100303.84
2022-12-26T17:34:56.970Z,100294.94
2022-12-26T17:37:26.869Z,100300.44
2022-12-26T17:40:06.311Z,100287.94
2022-12-26T17:42:41.331Z,100296.22
2022-12-26T17:45:14.682Z,100302.34
2022-12-26T17:47:42.317Z,100294.34
2022-12-26T17:50:11.408Z,100291.53
2022-12-26T17:52:41.466Z,100286.94
2022-12-26T17:55:17.021Z,100282.25
2022-12-26T17:57:45.678Z,100276.66
2022-12-26T18:00:19.815Z,100275.25
2022-12-26T18:02:48.995Z,100275.91
2022-12-26T18:05:18.727Z,100274.38
2022-12-26T18:07:48.750Z,100278.91
2022-12-26T18:10:22.255Z,100273.59
2022-12-26T18:12:52.581Z,100273.28
2022-12-26T18:15:20.946Z,100286.88
2022-12-26T18:17:50.753Z,100281.09
2022-12-26T18:20:23.982Z,100275.97
2022-12-26T18:22:52.915Z,100273.47
2022-12-26T18:25:23.856Z,100281.56
2022-12-26T18:27:52.016Z,100271.72
2022-12-26T18:30:23.856Z,100266.88
2022-12-26T18:32:53.807Z,100262.56
2022-12-26T18:35:22.620Z,100261.81
2022-12-26T18:37:52.233Z,100249.03
2022-12-26T18:40:32.482Z,100247.31
2022-12-26T18:43:01.176Z,100248.09
2022-12-26T18:45:30.718Z,100243.19
2022-12-26T18:47:58.963Z,100235.00
2022-12-26T18:50:27.733Z,100245.66
2022-12-26T18:52:55.676Z,100241.22
2022-12-26T18:55:23.202Z,100235.00
2022-12-26T18:57:50.693Z,100226.69
2022-12-26T19:00:19.362Z,100237.84
2022-12-26T19:02:47.775Z,100233.34
2022-12-26T19:05:31.029Z,100230.19
2022-12-26T19:07:59.073Z,100230.91
2022-12-26T19:10:29.313Z,100236.69
2022-12-26T19:13:04.602Z,100242.97
2022-12-26T19:15:33.462Z,100236.44
2022-12-26T19:18:01.690Z,100239.16
2022-12-26T19:20:30.134Z,100240.50
2022-12-26T19:22:58.867Z,100241.72
2022-12-26T19:25:28.505Z,100240.50
2022-12-26T19:27:57.319Z,100245.06
2022-12-26T19:30:25.310Z,100243.88
2022-12-26T19:32:53.236Z,100240.00
2022-12-26T19:35:21.901Z,100231.28
2022-12-26T19:37:51.297Z,100214.03
2022-12-26T19:40:24.967Z,100233.38
2022-12-26T19:42:53.335Z,100228.09
2022-12-26T19:45:22.383Z,100222.50
2022-12-26T19:47:50.334Z,100235.28
2022-12-26T19:50:18.424Z,100228.16
2022-12-26T19:52:46.639Z,100222.50
2022-12-26T19:55:14.629Z,100225.31
2022-12-26T19:57:42.387Z,100225.69
2022-12-26T20:00:11.436Z,100220.59
2022-12-26T20:02:42.753Z,100230.19
2022-12-26T20:05:11.976Z,100233.44
2022-12-26T20:07:41.650Z,100230.69
2022-12-26T20:10:09.250Z,100226.28
2022-12-26T20:12:36.935Z,100234.13
2022-12-26T20:15:05.678Z,100222.13
2022-12-26T20:17:33.589Z,100230.81
2022-12-26T20:20:01.884Z,100233.00
2022-12-26T20:22:29.655Z,100229.78
2022-12-26T20:24:58.152Z,100227.25
2022-12-26T20:27:26.030Z,100238.00
2022-12-26T20:29:53.420Z,100238.00
2022-12-26T20:32:20.630Z,100233.28
2022-12-26T20:34:48.046Z,100229.81
2022-12-26T20:37:15.299Z,100231.69
2022-12-26T20:39:43.896Z,100241.69
2022-12-26T20:42:12.943Z,100242.09
2022-12-26T20:44:41.545Z,100239.75
2022-12-26T20:47:10.580Z,100238.66
2022-12-26T20:49:38.906Z,100235.75
2022-12-26T20:52:07.470Z,100242.09
2022-12-26T20:54:37.444Z,100240.13
2022-12-26T20:57:07.913Z,100242.00
2022-12-26T20:59:37.626Z,100246.63
2022-12-26T21:02:05.664Z,100241.94
2022-12-26T21:04:33.376Z,100242.44
2022-12-26T21:07:01.266Z,100255.69
2022-12-26T21:09:29.247Z,100244.41
2022-12-26T21:11:57.070Z,100244.78
2022-12-26T21:14:24.759Z,100242.69
2022-12-26T21:16:57.893Z,100243.03
2022-12-26T21:19:26.988Z,100251.00
2022-12-26T21:21:58.801Z,100245.16
2022-12-26T21:24:30.176Z,100256.41
2022-12-26T21:26:58.808Z,100242.22
2022-12-26T21:29:31.088Z,100250.25
2022-12-26T21:32:00.318Z,100246.00
2022-12-26T21:34:29.165Z,100243.66
2022-12-26T21:37:15.708Z,100242.03
2022-12-26T21:39:43.899Z,100222.31
2022-12-26T21:42:11.315Z,100234.94
2022-12-26T21:44:39.368Z,100233.81
2022-12-26T21:47:10.997Z,100230.94
2022-12-26T21:49:40.530Z,100239.22
2022-12-26T21:52:08.712Z,100227.84
2022-12-26T21:54:55.823Z,100232.84
2022-12-26T21:57:25.847Z,100228.13
2022-12-26T21:59:57.727Z,100224.44
2022-12-26T22:02:47.466Z,100228.00
2022-12-26T22:05:18.206Z,100237.28
2022-12-26T22:07:47.338Z,100235.13
2022-12-26T22:10:35.560Z,100242.31
2022-12-26T22:13:07.104Z,100238.75
2022-12-26T22:15:55.152Z,100241.44
2022-12-26T22:18:24.013Z,100240.69
2022-12-26T22:20:52.863Z,100243.25
2022-12-26T22:23:22.915Z,100234.06
2022-12-26T22:25:55.787Z,100236.06
2022-12-26T22:28:25.748Z,100232.81
2022-12-26T22:30:53.887Z,100236.78
2022-12-26T22:33:25.720Z,100232.84
2022-12-26T22:35:53.696Z,100238.56
2022-12-26T22:38:22.450Z,100220.28
2022-12-26T22:40:54.645Z,100226.25
2022-12-26T22:43:21.894Z,100232.63
2022-12-26T22:45:49.203Z,100228.22
2022-12-26T22:48:17.133Z,100230.44
2022-12-26T22:50:45.687Z,100226.69
2022-12-26T22:53:13.112Z,100215.38
2022-12-26T22:55:47.992Z,100213.53
2022-12-26T22:58:16.078Z,100209.91
2022-12-26T23:00:43.956Z,100214.94
2022-12-26T23:03:11.606Z,100213.41
2022-12-26T23:05:39.066Z,100203.16
2022-12-26T23:08:07.031Z,100206.50
2022-12-26T23:10:34.824Z,100214.13
2022-12-26T23:13:02.462Z,100219.81
2022-12-26T23:15:29.880Z,100206.94
2022-12-26T23:18:34.674Z,100206.06
2022-12-26T23:21:24.057Z,100208.75
2022-12-26T23:23:51.438Z,100195.28
2022-12-26T23:26:18.673Z,100204.34
2022-12-26T23:29:04.851Z,100216.59
2022-12-26T23:31:32.338Z,100208.66
2022-12-26T23:33:59.865Z,100215.66
2022-12-26T23:36:27.574Z,100219.31
2022-12-26T23:38:54.799Z,100219.94
2022-12-26T23:41:22.154Z,100221.50
2022-12-26T23:43:49.473Z,100218.16
2022-12-26T23:46:16.890Z,100226.75
2022-12-26T23:48:44.169Z,100223.28
2022-12-26T23:51:11.588Z,100212.94
2022-12-26T23:53:38.803Z,100219.88
2022-12-26T23:56:10.363Z,100221.41
2022-12-26T23:58:40.183Z,100222.63
